Terminal Aerodrome Forecast
Issued by NWS

Home | Current Version | Previous Version | Text Only | Print | Product List | Glossary On
Versions: 1 2 3 4 5 6 7 8 9 10 11 12 13 14 15 16 17 18 19 20 21 22 23 24 25 26 27 28 29 30 31 32 33 34 35 36 37
000
FTUS41 KOKX 251322 AAA
TAFTEB
TAF AMD
KTEB 251322Z 2513/2612 08012G18KT 4SM -RA BR OVC006
      TEMPO 2513/2516 2SM -RA BR OVC004
     FM251600 06010KT 2SM -RA BR OVC004
     FM252100 05006KT 2SM -SHRA BR OVC004
     FM260300 04004KT 3SM SHRA BR OVC004 PROB30 2603/2608 1SM -TSRA
      SCT006 OVC015CB
     FM261000 30005KT 6SM -SHRA BKN004 OVC010=

USA.gov is the U.S. government's official web portal to all federal, state and local government web resources and services.